sensor_id;sensor_type;location;lat;lon;timestamp;P1;durP1;ratioP1;P2;durP2;ratioP2
13335;SDS011;6737;51.480;11.962;2022-09-20T00:01:09;0.40;;;0.40;;
13335;SDS011;6737;51.480;11.962;2022-09-20T00:03:38;0.40;;;0.40;;
13335;SDS011;6737;51.480;11.962;2022-09-20T00:06:10;0.30;;;0.30;;
13335;SDS011;6737;51.480;11.962;2022-09-20T00:08:37;0.30;;;0.30;;
13335;SDS011;6737;51.480;11.962;2022-09-20T00:11:05;0.40;;;0.40;;
13335;SDS011;6737;51.480;11.962;2022-09-20T00:13:34;0.40;;;0.40;;
13335;SDS011;6737;51.480;11.962;2022-09-20T00:16:03;0.30;;;0.30;;
13335;SDS011;6737;51.480;11.962;2022-09-20T00:18:33;0.40;;;0.40;;
13335;SDS011;6737;51.480;11.962;2022-09-20T00:20:59;0.40;;;0.40;;
13335;SDS011;6737;51.480;11.962;2022-09-20T00:23:25;0.40;;;0.40;;
13335;SDS011;6737;51.480;11.962;2022-09-20T00:25:58;0.37;;;0.37;;
13335;SDS011;6737;51.480;11.962;2022-09-20T00:28:28;0.40;;;0.40;;
13335;SDS011;6737;51.480;11.962;2022-09-20T00:30:55;0.30;;;0.30;;
13335;SDS011;6737;51.480;11.962;2022-09-20T00:33:22;0.50;;;0.50;;
13335;SDS011;6737;51.480;11.962;2022-09-20T00:36:09;0.40;;;0.40;;
13335;SDS011;6737;51.480;11.962;2022-09-20T00:38:35;0.50;;;0.50;;
13335;SDS011;6737;51.480;11.962;2022-09-20T00:41:01;0.40;;;0.40;;
13335;SDS011;6737;51.480;11.962;2022-09-20T00:43:42;0.37;;;0.37;;
13335;SDS011;6737;51.480;11.962;2022-09-20T00:46:15;0.30;;;0.30;;
13335;SDS011;6737;51.480;11.962;2022-09-20T00:48:47;0.37;;;0.37;;
13335;SDS011;6737;51.480;11.962;2022-09-20T00:51:16;0.30;;;0.30;;
13335;SDS011;6737;51.480;11.962;2022-09-20T00:53:48;0.50;;;0.50;;
13335;SDS011;6737;51.480;11.962;2022-09-20T00:56:19;0.40;;;0.40;;
13335;SDS011;6737;51.480;11.962;2022-09-20T00:58:50;0.60;;;0.60;;
13335;SDS011;6737;51.480;11.962;2022-09-20T01:01:37;0.40;;;0.40;;
13335;SDS011;6737;51.480;11.962;2022-09-20T01:04:03;0.40;;;0.40;;
13335;SDS011;6737;51.480;11.962;2022-09-20T01:06:29;0.40;;;0.40;;
13335;SDS011;6737;51.480;11.962;2022-09-20T01:08:56;0.40;;;0.40;;
13335;SDS011;6737;51.480;11.962;2022-09-20T01:11:27;0.60;;;0.60;;
13335;SDS011;6737;51.480;11.962;2022-09-20T01:13:55;0.40;;;0.40;;
13335;SDS011;6737;51.480;11.962;2022-09-20T01:16:21;0.40;;;0.40;;
13335;SDS011;6737;51.480;11.962;2022-09-20T01:18:49;0.70;;;0.70;;
13335;SDS011;6737;51.480;11.962;2022-09-20T01:21:16;0.50;;;0.50;;
13335;SDS011;6737;51.480;11.962;2022-09-20T01:23:59;0.50;;;0.50;;
13335;SDS011;6737;51.480;11.962;2022-09-20T01:26:36;0.40;;;0.40;;
13335;SDS011;6737;51.480;11.962;2022-09-20T01:32:19;0.40;;;0.40;;
13335;SDS011;6737;51.480;11.962;2022-09-20T01:34:53;0.40;;;0.40;;
13335;SDS011;6737;51.480;11.962;2022-09-20T01:37:25;0.43;;;0.43;;
13335;SDS011;6737;51.480;11.962;2022-09-20T01:40:05;0.83;;;0.53;;
13335;SDS011;6737;51.480;11.962;2022-09-20T01:45:37;0.30;;;0.30;;
13335;SDS011;6737;51.480;11.962;2022-09-20T01:50:48;0.43;;;0.43;;
13335;SDS011;6737;51.480;11.962;2022-09-20T01:53:47;0.40;;;0.40;;
13335;SDS011;6737;51.480;11.962;2022-09-20T02:04:57;0.47;;;0.47;;
13335;SDS011;6737;51.480;11.962;2022-09-20T02:13:29;0.30;;;0.30;;
13335;SDS011;6737;51.480;11.962;2022-09-20T02:21:34;0.40;;;0.40;;
13335;SDS011;6737;51.480;11.962;2022-09-20T02:24:32;0.40;;;0.40;;
13335;SDS011;6737;51.480;11.962;2022-09-20T02:33:03;0.40;;;0.40;;
13335;SDS011;6737;51.480;11.962;2022-09-20T02:43:59;0.40;;;0.40;;
13335;SDS011;6737;51.480;11.962;2022-09-20T02:49:37;0.47;;;0.40;;
13335;SDS011;6737;51.480;11.962;2022-09-20T02:55:46;0.27;;;0.27;;
13335;SDS011;6737;51.480;11.962;2022-09-20T02:58:39;0.30;;;0.30;;
13335;SDS011;6737;51.480;11.962;2022-09-20T03:06:27;0.30;;;0.30;;
13335;SDS011;6737;51.480;11.962;2022-09-20T03:14:35;0.40;;;0.40;;
13335;SDS011;6737;51.480;11.962;2022-09-20T03:25:36;0.33;;;0.33;;
13335;SDS011;6737;51.480;11.962;2022-09-20T04:01:31;0.40;;;0.40;;
13335;SDS011;6737;51.480;11.962;2022-09-20T04:04:26;0.40;;;0.40;;
13335;SDS011;6737;51.480;11.962;2022-09-20T04:07:02;0.43;;;0.43;;
13335;SDS011;6737;51.480;11.962;2022-09-20T04:18:21;1.00;;;0.50;;
13335;SDS011;6737;51.480;11.962;2022-09-20T04:21:13;0.47;;;0.47;;
13335;SDS011;6737;51.480;11.962;2022-09-20T04:26:26;0.40;;;0.40;;
13335;SDS011;6737;51.480;11.962;2022-09-20T04:28:56;0.50;;;0.50;;
13335;SDS011;6737;51.480;11.962;2022-09-20T04:31:50;0.30;;;0.30;;
13335;SDS011;6737;51.480;11.962;2022-09-20T04:34:34;0.40;;;0.40;;
13335;SDS011;6737;51.480;11.962;2022-09-20T04:37:26;0.40;;;0.40;;
13335;SDS011;6737;51.480;11.962;2022-09-20T04:42:56;0.67;;;0.60;;
13335;SDS011;6737;51.480;11.962;2022-09-20T04:45:56;0.50;;;0.50;;
13335;SDS011;6737;51.480;11.962;2022-09-20T04:48:49;0.67;;;0.67;;
13335;SDS011;6737;51.480;11.962;2022-09-20T05:00:02;0.83;;;0.63;;
13335;SDS011;6737;51.480;11.962;2022-09-20T05:05:26;0.43;;;0.43;;
13335;SDS011;6737;51.480;11.962;2022-09-20T05:17:29;0.67;;;0.57;;
13335;SDS011;6737;51.480;11.962;2022-09-20T05:31:14;0.33;;;0.33;;
13335;SDS011;6737;51.480;11.962;2022-09-20T05:40:15;0.40;;;0.40;;
13335;SDS011;6737;51.480;11.962;2022-09-20T05:50:45;0.30;;;0.30;;
13335;SDS011;6737;51.480;11.962;2022-09-20T06:01:58;0.50;;;0.50;;
13335;SDS011;6737;51.480;11.962;2022-09-20T06:04:54;0.40;;;0.40;;
13335;SDS011;6737;51.480;11.962;2022-09-20T06:08:25;0.30;;;0.30;;
13335;SDS011;6737;51.480;11.962;2022-09-20T06:16:03;0.40;;;0.40;;
13335;SDS011;6737;51.480;11.962;2022-09-20T06:18:33;0.37;;;0.37;;
13335;SDS011;6737;51.480;11.962;2022-09-20T06:23:57;0.50;;;0.50;;
13335;SDS011;6737;51.480;11.962;2022-09-20T06:26:26;0.30;;;0.30;;
13335;SDS011;6737;51.480;11.962;2022-09-20T06:28:58;0.50;;;0.50;;
13335;SDS011;6737;51.480;11.962;2022-09-20T06:31:31;0.40;;;0.40;;
13335;SDS011;6737;51.480;11.962;2022-09-20T06:36:32;0.60;;;0.60;;
13335;SDS011;6737;51.480;11.962;2022-09-20T06:42:15;0.50;;;0.50;;
13335;SDS011;6737;51.480;11.962;2022-09-20T06:44:41;0.50;;;0.50;;
13335;SDS011;6737;51.480;11.962;2022-09-20T06:47:10;0.70;;;0.70;;
13335;SDS011;6737;51.480;11.962;2022-09-20T06:49:37;0.30;;;0.30;;
13335;SDS011;6737;51.480;11.962;2022-09-20T06:52:11;0.50;;;0.50;;
13335;SDS011;6737;51.480;11.962;2022-09-20T06:54:39;0.53;;;0.50;;
13335;SDS011;6737;51.480;11.962;2022-09-20T06:57:10;0.63;;;0.63;;
13335;SDS011;6737;51.480;11.962;2022-09-20T06:59:40;0.50;;;0.50;;
13335;SDS011;6737;51.480;11.962;2022-09-20T07:02:05;1.30;;;0.50;;
13335;SDS011;6737;51.480;11.962;2022-09-20T07:04:32;0.50;;;0.50;;
13335;SDS011;6737;51.480;11.962;2022-09-20T07:06:59;0.87;;;0.63;;
13335;SDS011;6737;51.480;11.962;2022-09-20T07:09:26;0.67;;;0.67;;
13335;SDS011;6737;51.480;11.962;2022-09-20T07:11:52;0.50;;;0.50;;
13335;SDS011;6737;51.480;11.962;2022-09-20T07:14:21;0.60;;;0.60;;
13335;SDS011;6737;51.480;11.962;2022-09-20T07:16:47;0.87;;;0.87;;
13335;SDS011;6737;51.480;11.962;2022-09-20T07:19:13;1.03;;;0.93;;
13335;SDS011;6737;51.480;11.962;2022-09-20T07:21:40;0.60;;;0.60;;
13335;SDS011;6737;51.480;11.962;2022-09-20T07:24:06;0.50;;;0.50;;
13335;SDS011;6737;51.480;11.962;2022-09-20T07:26:32;0.50;;;0.50;;
13335;SDS011;6737;51.480;11.962;2022-09-20T07:28:59;0.60;;;0.60;;
13335;SDS011;6737;51.480;11.962;2022-09-20T07:31:25;0.63;;;0.57;;
13335;SDS011;6737;51.480;11.962;2022-09-20T07:33:52;0.83;;;0.70;;
13335;SDS011;6737;51.480;11.962;2022-09-20T07:36:18;0.67;;;0.67;;
13335;SDS011;6737;51.480;11.962;2022-09-20T07:38:49;0.80;;;0.80;;
13335;SDS011;6737;51.480;11.962;2022-09-20T07:41:18;0.80;;;0.80;;
13335;SDS011;6737;51.480;11.962;2022-09-20T07:43:44;0.80;;;0.80;;
13335;SDS011;6737;51.480;11.962;2022-09-20T07:46:11;1.13;;;1.00;;
13335;SDS011;6737;51.480;11.962;2022-09-20T07:48:40;0.57;;;0.57;;
13335;SDS011;6737;51.480;11.962;2022-09-20T07:51:07;0.80;;;0.80;;
13335;SDS011;6737;51.480;11.962;2022-09-20T07:53:36;0.87;;;0.87;;
13335;SDS011;6737;51.480;11.962;2022-09-20T07:56:03;0.73;;;0.60;;
13335;SDS011;6737;51.480;11.962;2022-09-20T07:58:32;0.83;;;0.77;;
13335;SDS011;6737;51.480;11.962;2022-09-20T08:01:00;0.60;;;0.60;;
13335;SDS011;6737;51.480;11.962;2022-09-20T08:03:29;1.00;;;0.73;;
13335;SDS011;6737;51.480;11.962;2022-09-20T08:06:00;0.97;;;0.87;;
13335;SDS011;6737;51.480;11.962;2022-09-20T08:08:31;0.83;;;0.80;;
13335;SDS011;6737;51.480;11.962;2022-09-20T08:11:04;0.80;;;0.80;;
13335;SDS011;6737;51.480;11.962;2022-09-20T08:13:34;0.87;;;0.83;;
13335;SDS011;6737;51.480;11.962;2022-09-20T08:16:20;1.20;;;1.00;;
13335;SDS011;6737;51.480;11.962;2022-09-20T08:18:50;0.73;;;0.73;;
13335;SDS011;6737;51.480;11.962;2022-09-20T08:21:20;0.73;;;0.60;;
13335;SDS011;6737;51.480;11.962;2022-09-20T08:23:46;1.10;;;0.93;;
13335;SDS011;6737;51.480;11.962;2022-09-20T08:26:13;0.67;;;0.67;;
13335;SDS011;6737;51.480;11.962;2022-09-20T08:28:43;0.73;;;0.73;;
13335;SDS011;6737;51.480;11.962;2022-09-20T08:31:11;2.63;;;1.03;;
13335;SDS011;6737;51.480;11.962;2022-09-20T08:33:39;1.13;;;0.90;;
13335;SDS011;6737;51.480;11.962;2022-09-20T08:36:06;0.90;;;0.77;;
13335;SDS011;6737;51.480;11.962;2022-09-20T08:38:36;2.93;;;1.03;;
13335;SDS011;6737;51.480;11.962;2022-09-20T08:41:02;1.50;;;1.00;;
13335;SDS011;6737;51.480;11.962;2022-09-20T08:43:41;0.60;;;0.60;;
13335;SDS011;6737;51.480;11.962;2022-09-20T08:46:14;0.80;;;0.70;;
13335;SDS011;6737;51.480;11.962;2022-09-20T08:48:43;1.13;;;0.97;;
13335;SDS011;6737;51.480;11.962;2022-09-20T08:51:11;1.70;;;0.90;;
13335;SDS011;6737;51.480;11.962;2022-09-20T08:53:50;0.80;;;0.80;;
13335;SDS011;6737;51.480;11.962;2022-09-20T08:56:18;1.17;;;1.00;;
13335;SDS011;6737;51.480;11.962;2022-09-20T08:58:45;1.10;;;1.00;;
13335;SDS011;6737;51.480;11.962;2022-09-20T09:01:21;2.17;;;1.00;;
13335;SDS011;6737;51.480;11.962;2022-09-20T09:03:49;1.20;;;1.07;;
13335;SDS011;6737;51.480;11.962;2022-09-20T09:06:18;0.70;;;0.70;;
13335;SDS011;6737;51.480;11.962;2022-09-20T09:08:45;0.77;;;0.77;;
13335;SDS011;6737;51.480;11.962;2022-09-20T09:11:16;1.93;;;0.90;;
13335;SDS011;6737;51.480;11.962;2022-09-20T09:16:54;0.97;;;0.80;;
13335;SDS011;6737;51.480;11.962;2022-09-20T09:19:27;0.90;;;0.90;;
13335;SDS011;6737;51.480;11.962;2022-09-20T09:22:08;0.97;;;0.87;;
13335;SDS011;6737;51.480;11.962;2022-09-20T09:24:34;0.97;;;0.87;;
13335;SDS011;6737;51.480;11.962;2022-09-20T09:29:50;1.03;;;0.90;;
13335;SDS011;6737;51.480;11.962;2022-09-20T09:32:19;1.20;;;0.90;;
13335;SDS011;6737;51.480;11.962;2022-09-20T09:34:47;1.10;;;1.00;;
13335;SDS011;6737;51.480;11.962;2022-09-20T09:37:23;1.10;;;1.00;;
13335;SDS011;6737;51.480;11.962;2022-09-20T09:42:52;1.23;;;1.13;;
13335;SDS011;6737;51.480;11.962;2022-09-20T09:45:24;1.17;;;0.90;;
13335;SDS011;6737;51.480;11.962;2022-09-20T09:51:05;1.33;;;1.17;;
13335;SDS011;6737;51.480;11.962;2022-09-20T09:53:34;0.70;;;0.70;;
13335;SDS011;6737;51.480;11.962;2022-09-20T10:04:22;1.30;;;0.90;;
13335;SDS011;6737;51.480;11.962;2022-09-20T10:07:17;1.33;;;1.07;;
13335;SDS011;6737;51.480;11.962;2022-09-20T10:09:50;1.53;;;0.93;;
13335;SDS011;6737;51.480;11.962;2022-09-20T10:12:32;0.60;;;0.60;;
13335;SDS011;6737;51.480;11.962;2022-09-20T10:38:01;0.97;;;0.87;;
13335;SDS011;6737;51.480;11.962;2022-09-20T10:54:27;0.80;;;0.80;;
13335;SDS011;6737;51.480;11.962;2022-09-20T10:57:19;0.83;;;0.83;;
13335;SDS011;6737;51.480;11.962;2022-09-20T11:00:42;1.07;;;0.57;;
13335;SDS011;6737;51.480;11.962;2022-09-20T11:08:19;0.87;;;0.87;;
13335;SDS011;6737;51.480;11.962;2022-09-20T11:10:52;0.93;;;0.80;;
13335;SDS011;6737;51.480;11.962;2022-09-20T11:18:54;0.60;;;0.53;;
13335;SDS011;6737;51.480;11.962;2022-09-20T11:21:28;0.60;;;0.60;;
13335;SDS011;6737;51.480;11.962;2022-09-20T11:24:09;0.60;;;0.60;;
13335;SDS011;6737;51.480;11.962;2022-09-20T11:26:40;0.80;;;0.80;;
13335;SDS011;6737;51.480;11.962;2022-09-20T11:29:55;0.60;;;0.60;;
13335;SDS011;6737;51.480;11.962;2022-09-20T11:32:19;0.70;;;0.70;;
13335;SDS011;6737;51.480;11.962;2022-09-20T11:34:50;0.70;;;0.70;;
13335;SDS011;6737;51.480;11.962;2022-09-20T11:37:35;0.90;;;0.77;;
13335;SDS011;6737;51.480;11.962;2022-09-20T11:40:25;0.47;;;0.47;;
13335;SDS011;6737;51.480;11.962;2022-09-20T11:42:51;0.50;;;0.50;;
13335;SDS011;6737;51.480;11.962;2022-09-20T11:45:22;0.60;;;0.60;;
13335;SDS011;6737;51.480;11.962;2022-09-20T11:47:52;0.40;;;0.40;;
13335;SDS011;6737;51.480;11.962;2022-09-20T11:55:39;0.40;;;0.40;;
13335;SDS011;6737;51.480;11.962;2022-09-20T11:58:21;0.63;;;0.63;;
13335;SDS011;6737;51.480;11.962;2022-09-20T12:00:48;0.63;;;0.60;;
13335;SDS011;6737;51.480;11.962;2022-09-20T12:05:54;0.50;;;0.50;;
13335;SDS011;6737;51.480;11.962;2022-09-20T12:08:24;0.47;;;0.47;;
13335;SDS011;6737;51.480;11.962;2022-09-20T12:11:05;0.70;;;0.70;;
13335;SDS011;6737;51.480;11.962;2022-09-20T12:13:38;1.90;;;0.70;;
13335;SDS011;6737;51.480;11.962;2022-09-20T12:16:14;0.60;;;0.60;;
13335;SDS011;6737;51.480;11.962;2022-09-20T12:18:45;0.53;;;0.53;;
13335;SDS011;6737;51.480;11.962;2022-09-20T12:21:18;0.67;;;0.60;;
13335;SDS011;6737;51.480;11.962;2022-09-20T12:28:45;0.53;;;0.53;;
13335;SDS011;6737;51.480;11.962;2022-09-20T12:34:43;0.50;;;0.50;;
13335;SDS011;6737;51.480;11.962;2022-09-20T12:39:16;0.50;;;0.50;;
13335;SDS011;6737;51.480;11.962;2022-09-20T12:52:23;0.53;;;0.53;;
13335;SDS011;6737;51.480;11.962;2022-09-20T12:55:08;0.47;;;0.47;;
13335;SDS011;6737;51.480;11.962;2022-09-20T12:57:37;0.50;;;0.50;;
13335;SDS011;6737;51.480;11.962;2022-09-20T13:00:05;0.50;;;0.50;;
13335;SDS011;6737;51.480;11.962;2022-09-20T13:05:30;0.40;;;0.40;;
13335;SDS011;6737;51.480;11.962;2022-09-20T13:08:11;0.43;;;0.43;;
13335;SDS011;6737;51.480;11.962;2022-09-20T13:13:32;0.40;;;0.40;;
13335;SDS011;6737;51.480;11.962;2022-09-20T13:16:23;0.43;;;0.43;;
13335;SDS011;6737;51.480;11.962;2022-09-20T13:19:01;0.50;;;0.50;;
13335;SDS011;6737;51.480;11.962;2022-09-20T13:21:37;0.60;;;0.60;;
13335;SDS011;6737;51.480;11.962;2022-09-20T13:24:11;0.50;;;0.50;;
13335;SDS011;6737;51.480;11.962;2022-09-20T13:26:43;0.50;;;0.50;;
13335;SDS011;6737;51.480;11.962;2022-09-20T13:29:25;0.50;;;0.50;;
13335;SDS011;6737;51.480;11.962;2022-09-20T13:34:43;0.50;;;0.50;;
13335;SDS011;6737;51.480;11.962;2022-09-20T13:37:17;0.83;;;0.60;;
13335;SDS011;6737;51.480;11.962;2022-09-20T13:39:53;0.40;;;0.40;;
13335;SDS011;6737;51.480;11.962;2022-09-20T13:42:19;0.40;;;0.40;;
13335;SDS011;6737;51.480;11.962;2022-09-20T13:44:46;0.50;;;0.50;;
13335;SDS011;6737;51.480;11.962;2022-09-20T13:49:53;1.17;;;0.50;;
13335;SDS011;6737;51.480;11.962;2022-09-20T13:52:27;0.40;;;0.40;;
13335;SDS011;6737;51.480;11.962;2022-09-20T13:54:55;0.40;;;0.40;;
13335;SDS011;6737;51.480;11.962;2022-09-20T13:57:22;0.40;;;0.40;;
13335;SDS011;6737;51.480;11.962;2022-09-20T13:59:51;0.50;;;0.50;;
13335;SDS011;6737;51.480;11.962;2022-09-20T14:02:31;0.40;;;0.40;;
13335;SDS011;6737;51.480;11.962;2022-09-20T14:04:59;0.50;;;0.50;;
13335;SDS011;6737;51.480;11.962;2022-09-20T14:07:28;0.30;;;0.30;;
13335;SDS011;6737;51.480;11.962;2022-09-20T14:09:56;0.40;;;0.40;;
13335;SDS011;6737;51.480;11.962;2022-09-20T14:12:23;0.50;;;0.50;;
13335;SDS011;6737;51.480;11.962;2022-09-20T14:14:50;0.50;;;0.50;;
13335;SDS011;6737;51.480;11.962;2022-09-20T14:17:17;0.40;;;0.40;;
13335;SDS011;6737;51.480;11.962;2022-09-20T14:19:49;0.40;;;0.40;;
13335;SDS011;6737;51.480;11.962;2022-09-20T14:22:20;0.30;;;0.30;;
13335;SDS011;6737;51.480;11.962;2022-09-20T14:28:05;0.50;;;0.50;;
13335;SDS011;6737;51.480;11.962;2022-09-20T14:30:43;0.40;;;0.40;;
13335;SDS011;6737;51.480;11.962;2022-09-20T14:33:15;0.47;;;0.47;;
13335;SDS011;6737;51.480;11.962;2022-09-20T14:35:48;0.40;;;0.40;;
13335;SDS011;6737;51.480;11.962;2022-09-20T14:38:16;0.40;;;0.40;;
13335;SDS011;6737;51.480;11.962;2022-09-20T14:40:47;0.40;;;0.40;;
13335;SDS011;6737;51.480;11.962;2022-09-20T14:43:34;0.40;;;0.40;;
13335;SDS011;6737;51.480;11.962;2022-09-20T14:46:04;0.40;;;0.40;;
13335;SDS011;6737;51.480;11.962;2022-09-20T14:51:10;0.47;;;0.47;;
13335;SDS011;6737;51.480;11.962;2022-09-20T14:53:50;0.40;;;0.40;;
13335;SDS011;6737;51.480;11.962;2022-09-20T14:56:37;0.50;;;0.50;;
13335;SDS011;6737;51.480;11.962;2022-09-20T15:01:40;0.40;;;0.40;;
13335;SDS011;6737;51.480;11.962;2022-09-20T15:04:22;0.33;;;0.33;;
13335;SDS011;6737;51.480;11.962;2022-09-20T15:06:51;0.30;;;0.30;;
13335;SDS011;6737;51.480;11.962;2022-09-20T15:09:18;0.40;;;0.40;;
13335;SDS011;6737;51.480;11.962;2022-09-20T15:11:46;0.33;;;0.33;;
13335;SDS011;6737;51.480;11.962;2022-09-20T15:14:23;0.47;;;0.47;;
13335;SDS011;6737;51.480;11.962;2022-09-20T15:16:48;0.40;;;0.40;;
13335;SDS011;6737;51.480;11.962;2022-09-20T15:19:14;0.40;;;0.40;;
13335;SDS011;6737;51.480;11.962;2022-09-20T15:21:40;0.33;;;0.33;;
13335;SDS011;6737;51.480;11.962;2022-09-20T15:24:06;0.40;;;0.40;;
13335;SDS011;6737;51.480;11.962;2022-09-20T15:26:32;0.47;;;0.47;;
13335;SDS011;6737;51.480;11.962;2022-09-20T15:28:59;0.40;;;0.40;;
13335;SDS011;6737;51.480;11.962;2022-09-20T15:31:25;0.40;;;0.40;;
13335;SDS011;6737;51.480;11.962;2022-09-20T15:33:52;0.40;;;0.40;;
13335;SDS011;6737;51.480;11.962;2022-09-20T15:36:18;0.40;;;0.40;;
13335;SDS011;6737;51.480;11.962;2022-09-20T15:38:43;0.40;;;0.40;;
13335;SDS011;6737;51.480;11.962;2022-09-20T15:41:09;0.40;;;0.40;;
13335;SDS011;6737;51.480;11.962;2022-09-20T15:43:35;0.30;;;0.30;;
13335;SDS011;6737;51.480;11.962;2022-09-20T15:46:18;0.40;;;0.40;;
13335;SDS011;6737;51.480;11.962;2022-09-20T15:48:47;0.47;;;0.47;;
13335;SDS011;6737;51.480;11.962;2022-09-20T15:51:13;0.40;;;0.40;;
13335;SDS011;6737;51.480;11.962;2022-09-20T15:53:41;0.40;;;0.40;;
13335;SDS011;6737;51.480;11.962;2022-09-20T15:56:18;0.40;;;0.40;;
13335;SDS011;6737;51.480;11.962;2022-09-20T15:58:47;0.40;;;0.40;;
13335;SDS011;6737;51.480;11.962;2022-09-20T16:01:15;0.40;;;0.40;;
13335;SDS011;6737;51.480;11.962;2022-09-20T16:03:43;0.40;;;0.40;;
13335;SDS011;6737;51.480;11.962;2022-09-20T16:06:09;1.30;;;0.40;;
13335;SDS011;6737;51.480;11.962;2022-09-20T16:08:37;0.40;;;0.40;;
13335;SDS011;6737;51.480;11.962;2022-09-20T16:11:05;0.40;;;0.40;;
13335;SDS011;6737;51.480;11.962;2022-09-20T16:13:32;0.40;;;0.40;;
13335;SDS011;6737;51.480;11.962;2022-09-20T16:16:00;0.30;;;0.30;;
13335;SDS011;6737;51.480;11.962;2022-09-20T16:18:26;0.50;;;0.50;;
13335;SDS011;6737;51.480;11.962;2022-09-20T16:21:12;0.40;;;0.40;;
13335;SDS011;6737;51.480;11.962;2022-09-20T16:23:50;0.50;;;0.50;;
13335;SDS011;6737;51.480;11.962;2022-09-20T16:26:17;0.40;;;0.40;;
13335;SDS011;6737;51.480;11.962;2022-09-20T16:28:49;0.40;;;0.40;;
13335;SDS011;6737;51.480;11.962;2022-09-20T16:31:34;0.50;;;0.50;;
13335;SDS011;6737;51.480;11.962;2022-09-20T16:34:12;0.63;;;0.53;;
13335;SDS011;6737;51.480;11.962;2022-09-20T16:36:44;0.40;;;0.40;;
13335;SDS011;6737;51.480;11.962;2022-09-20T16:39:22;0.57;;;0.57;;
13335;SDS011;6737;51.480;11.962;2022-09-20T16:41:52;0.30;;;0.30;;
13335;SDS011;6737;51.480;11.962;2022-09-20T16:44:23;0.50;;;0.50;;
13335;SDS011;6737;51.480;11.962;2022-09-20T16:46:49;0.40;;;0.40;;
13335;SDS011;6737;51.480;11.962;2022-09-20T16:49:15;0.40;;;0.40;;
13335;SDS011;6737;51.480;11.962;2022-09-20T16:51:42;0.43;;;0.43;;
13335;SDS011;6737;51.480;11.962;2022-09-20T16:54:11;0.40;;;0.40;;
13335;SDS011;6737;51.480;11.962;2022-09-20T16:56:39;0.50;;;0.50;;
13335;SDS011;6737;51.480;11.962;2022-09-20T16:59:06;0.40;;;0.40;;
13335;SDS011;6737;51.480;11.962;2022-09-20T17:01:33;0.47;;;0.47;;
13335;SDS011;6737;51.480;11.962;2022-09-20T17:04:01;0.50;;;0.50;;
13335;SDS011;6737;51.480;11.962;2022-09-20T17:06:31;0.40;;;0.40;;
13335;SDS011;6737;51.480;11.962;2022-09-20T17:08:59;0.30;;;0.30;;
13335;SDS011;6737;51.480;11.962;2022-09-20T17:11:26;0.40;;;0.40;;
13335;SDS011;6737;51.480;11.962;2022-09-20T17:13:54;0.50;;;0.50;;
13335;SDS011;6737;51.480;11.962;2022-09-20T17:16:22;0.40;;;0.40;;
13335;SDS011;6737;51.480;11.962;2022-09-20T17:18:50;0.53;;;0.53;;
13335;SDS011;6737;51.480;11.962;2022-09-20T17:21:37;0.40;;;0.40;;
13335;SDS011;6737;51.480;11.962;2022-09-20T17:24:05;0.40;;;0.40;;
13335;SDS011;6737;51.480;11.962;2022-09-20T17:26:32;0.43;;;0.43;;
13335;SDS011;6737;51.480;11.962;2022-09-20T17:29:02;0.50;;;0.50;;
13335;SDS011;6737;51.480;11.962;2022-09-20T17:31:34;0.50;;;0.50;;
13335;SDS011;6737;51.480;11.962;2022-09-20T17:34:03;0.50;;;0.50;;
13335;SDS011;6737;51.480;11.962;2022-09-20T17:36:32;0.50;;;0.50;;
13335;SDS011;6737;51.480;11.962;2022-09-20T17:39:00;0.40;;;0.40;;
13335;SDS011;6737;51.480;11.962;2022-09-20T17:41:27;0.50;;;0.50;;
13335;SDS011;6737;51.480;11.962;2022-09-20T17:43:54;0.40;;;0.40;;
13335;SDS011;6737;51.480;11.962;2022-09-20T17:46:23;0.50;;;0.50;;
13335;SDS011;6737;51.480;11.962;2022-09-20T17:49:00;0.40;;;0.40;;
13335;SDS011;6737;51.480;11.962;2022-09-20T17:51:35;0.47;;;0.47;;
13335;SDS011;6737;51.480;11.962;2022-09-20T17:54:03;0.60;;;0.60;;
13335;SDS011;6737;51.480;11.962;2022-09-20T17:56:29;0.50;;;0.50;;
13335;SDS011;6737;51.480;11.962;2022-09-20T17:58:56;0.43;;;0.43;;
13335;SDS011;6737;51.480;11.962;2022-09-20T18:01:24;0.30;;;0.30;;
13335;SDS011;6737;51.480;11.962;2022-09-20T18:03:51;0.40;;;0.40;;
13335;SDS011;6737;51.480;11.962;2022-09-20T18:06:25;0.60;;;0.60;;
13335;SDS011;6737;51.480;11.962;2022-09-20T18:09:00;0.50;;;0.50;;
13335;SDS011;6737;51.480;11.962;2022-09-20T18:11:35;0.60;;;0.60;;
13335;SDS011;6737;51.480;11.962;2022-09-20T18:14:06;0.50;;;0.40;;
13335;SDS011;6737;51.480;11.962;2022-09-20T18:16:37;0.50;;;0.50;;
13335;SDS011;6737;51.480;11.962;2022-09-20T18:19:05;0.40;;;0.40;;
13335;SDS011;6737;51.480;11.962;2022-09-20T18:21:32;0.40;;;0.40;;
13335;SDS011;6737;51.480;11.962;2022-09-20T18:24:00;0.60;;;0.60;;
13335;SDS011;6737;51.480;11.962;2022-09-20T18:26:29;0.40;;;0.40;;
13335;SDS011;6737;51.480;11.962;2022-09-20T18:28:57;0.50;;;0.50;;
13335;SDS011;6737;51.480;11.962;2022-09-20T18:31:33;0.40;;;0.40;;
13335;SDS011;6737;51.480;11.962;2022-09-20T18:34:02;0.60;;;0.60;;
13335;SDS011;6737;51.480;11.962;2022-09-20T18:36:30;0.40;;;0.40;;
13335;SDS011;6737;51.480;11.962;2022-09-20T18:38:58;0.40;;;0.40;;
13335;SDS011;6737;51.480;11.962;2022-09-20T18:41:26;0.40;;;0.40;;
13335;SDS011;6737;51.480;11.962;2022-09-20T18:43:56;0.43;;;0.43;;
13335;SDS011;6737;51.480;11.962;2022-09-20T18:46:22;0.50;;;0.50;;
13335;SDS011;6737;51.480;11.962;2022-09-20T18:48:50;0.40;;;0.40;;
13335;SDS011;6737;51.480;11.962;2022-09-20T18:51:16;0.50;;;0.50;;
13335;SDS011;6737;51.480;11.962;2022-09-20T18:53:42;0.60;;;0.60;;
13335;SDS011;6737;51.480;11.962;2022-09-20T18:58:47;0.60;;;0.60;;
13335;SDS011;6737;51.480;11.962;2022-09-20T19:01:23;0.53;;;0.53;;
13335;SDS011;6737;51.480;11.962;2022-09-20T19:06:20;0.93;;;0.80;;
13335;SDS011;6737;51.480;11.962;2022-09-20T19:08:53;1.20;;;1.00;;
13335;SDS011;6737;51.480;11.962;2022-09-20T19:11:32;1.10;;;1.00;;
13335;SDS011;6737;51.480;11.962;2022-09-20T19:14:06;0.70;;;0.70;;
13335;SDS011;6737;51.480;11.962;2022-09-20T19:16:39;1.27;;;0.93;;
13335;SDS011;6737;51.480;11.962;2022-09-20T19:27:12;0.57;;;0.50;;
13335;SDS011;6737;51.480;11.962;2022-09-20T19:29:38;0.40;;;0.40;;
13335;SDS011;6737;51.480;11.962;2022-09-20T19:32:05;0.40;;;0.40;;
13335;SDS011;6737;51.480;11.962;2022-09-20T19:34:35;0.60;;;0.60;;
13335;SDS011;6737;51.480;11.962;2022-09-20T19:39:55;0.60;;;0.60;;
13335;SDS011;6737;51.480;11.962;2022-09-20T19:45:37;0.77;;;0.70;;
13335;SDS011;6737;51.480;11.962;2022-09-20T19:48:34;1.07;;;0.93;;
13335;SDS011;6737;51.480;11.962;2022-09-20T19:51:03;1.27;;;0.80;;
13335;SDS011;6737;51.480;11.962;2022-09-20T19:53:34;0.77;;;0.67;;
13335;SDS011;6737;51.480;11.962;2022-09-20T19:58:39;0.60;;;0.60;;
13335;SDS011;6737;51.480;11.962;2022-09-20T20:01:06;1.07;;;0.80;;
13335;SDS011;6737;51.480;11.962;2022-09-20T20:03:36;0.83;;;0.83;;
13335;SDS011;6737;51.480;11.962;2022-09-20T20:14:29;1.00;;;0.90;;
13335;SDS011;6737;51.480;11.962;2022-09-20T20:21:58;1.27;;;0.73;;
13335;SDS011;6737;51.480;11.962;2022-09-20T20:27:16;0.93;;;0.73;;
13335;SDS011;6737;51.480;11.962;2022-09-20T20:29:43;0.83;;;0.60;;
13335;SDS011;6737;51.480;11.962;2022-09-20T20:32:08;0.67;;;0.67;;
13335;SDS011;6737;51.480;11.962;2022-09-20T20:34:35;1.00;;;0.90;;
13335;SDS011;6737;51.480;11.962;2022-09-20T20:37:04;1.23;;;1.10;;
13335;SDS011;6737;51.480;11.962;2022-09-20T20:39:31;0.70;;;0.70;;
13335;SDS011;6737;51.480;11.962;2022-09-20T20:41:58;0.50;;;0.50;;
13335;SDS011;6737;51.480;11.962;2022-09-20T20:44:31;0.70;;;0.70;;
13335;SDS011;6737;51.480;11.962;2022-09-20T20:47:01;0.67;;;0.67;;
13335;SDS011;6737;51.480;11.962;2022-09-20T20:49:28;1.00;;;0.90;;
13335;SDS011;6737;51.480;11.962;2022-09-20T20:51:54;0.50;;;0.50;;
13335;SDS011;6737;51.480;11.962;2022-09-20T20:54:21;0.60;;;0.60;;
13335;SDS011;6737;51.480;11.962;2022-09-20T20:56:47;0.60;;;0.60;;